Airports Spain Bilbao Airport

Bilbao Airport (LEBB / BIO)

Facts about Bilbao Airport

Name Bilbao Airport
City Bilbao
Country Spain
ICAO code LEBB
IATA code BIO
Elevation 42.0624 meters (138 feet)

Weather

METAR

Metar data retrieved Friday, 19 July 2024 at 23:55 UTC (24 minutes ago)

LEBB 192330Z AUTO 09002KT CAVOK 20/19 Q1016

Live traffic

Navigraph Charts (account required)